Impacts METAR Board
IDs:

KBWI - Baltimore-Washington, MD, US

Updated at: 1700 UTC 22 May 2018
Potential Impact None Slight Moderate High
Time 22/05Z 22/06Z 22/07Z 22/08Z 22/09Z 22/10Z 22/11Z 22/12Z 22/13Z 22/14Z 22/15Z 22/16Z 22/17Z
Temp66 66 66 65 65 64 65 65 67 67 67 66 67
Dewpt58 58 58 58 58 58 59 61 63 62 64 64 65
Altim30.15 30.14 30.12 30.12 30.11 30.11 30.11 30.12 30.11 30.11 30.09 30.08 30.07
VIS10 10 10 10 10 10 10 10 10 8 10 3 7
CIG60 50 47 50 49 80 49 65 24 25 23 14 9
CoverBKNBKNOVCBKNBKNBKNOVCOVCOVCOVCOVCOVCOVC
FltCatVFRVFRVFRVFRVFRVFRVFRVFRMVFRMVFRMVFRMVFRIFR
WX-------------------RA-RARA BR--
WDir1502201801201300014020001500100
WSpd3 3 3 4 3 0 0 3 3 0 3 0 5
WGst-- -- -- -- -- -- -- -- -- -- -- -- --
Raw hourly METARs
KBWI 220454Z 15003KT 10SM BKN060 BKN160 BKN250 19/14 A3015 RMK AO2 SLP208 T01890144 402610183
KBWI 220554Z 22003KT 10SM BKN050 BKN160 19/14 A3014 RMK AO2 SLP205 T01890144 10233 20189 58003
KBWI 220654Z 18003KT 10SM BKN047 BKN055 OVC070 19/14 A3012 RMK AO2 SLP198 T01890144
KBWI 220754Z 12004KT 10SM BKN050 BKN075 18/14 A3012 RMK AO2 SLP196 T01830144
KBWI 220854Z 13003KT 10SM BKN049 BKN065 18/14 A3011 RMK AO2 SLP194 T01830144 56010
KBWI 220954Z 00000KT 10SM SCT046 BKN080 BKN210 18/14 A3011 RMK AO2 SLP193 T01780144
KBWI 221054Z 00000KT 10SM BKN049 OVC080 18/15 A3011 RMK AO2 SLP196 T01830150
KBWI 221154Z 14003KT 10SM SCT039TCU BKN065 OVC095 18/16 A3012 RMK AO2 RAB1058E41 SLP196 TCU NE P0000 60000 T01830161 10194 20178 53002
KBWI 221254Z 20003KT 10SM OVC024TCU 19/17 A3011 RMK AO2 RAB1159E54 SLP196 TCU SW AND N P0000 T01940172
KBWI 221354Z 00000KT 8SM -RA FEW011 BKN025 OVC041 19/17 A3011 RMK AO2 RAB00E30B48 SLP194 P0001 T01940167
KBWI 221454Z 15003KT 10SM -RA SCT012 OVC023 19/18 A3009 RMK AO2 SLP189 P0000 60001 T01940178 58008
KBWI 221605Z 00000KT 3SM RA BR SCT009 BKN014 OVC017 19/18 A3008 RMK AO2 P0005 T01890178
KBWI 221654Z 10005KT 7SM SCT004 BKN009 OVC017 19/18 A3007 RMK AO2 RAE46 SLP183 P0009 T01940183



Page loaded:  17:42 UTC  |   10:42 AM Pacific  |   11:42 AM Mountain  |   12:42 PM Central  |   01:42 PM Eastern

 

ADVISORIES

FORECASTS

FORECASTS

OBSERVATIONS

USER TOOLS

ABOUT US